createdAt,value
2019-03-26T00:00:49.432Z,96247.67
2019-03-26T00:01:52.853Z,96245.21
2019-03-26T00:02:56.817Z,96247.30
2019-03-26T00:04:05.679Z,96244.91
2019-03-26T00:05:05.976Z,96236.02
2019-03-26T00:06:09.479Z,96242.53
2019-03-26T00:07:14.188Z,96245.05
2019-03-26T00:08:17.598Z,96210.78
2019-03-26T00:09:21.047Z,96233.95
2019-03-26T00:10:24.583Z,96234.72
2019-03-26T00:11:28.006Z,96236.69
2019-03-26T00:12:31.614Z,96235.16
2019-03-26T00:13:35.039Z,96233.52
2019-03-26T00:14:38.509Z,96238.63
2019-03-26T00:15:41.920Z,96244.70
2019-03-26T00:16:45.338Z,96239.81
2019-03-26T00:17:48.753Z,96241.75
2019-03-26T00:18:52.199Z,96245.63
2019-03-26T00:19:55.621Z,96235.08
2019-03-26T00:20:59.187Z,96235.33
2019-03-26T00:22:02.604Z,96242.42
2019-03-26T00:23:06.182Z,96250.00
2019-03-26T00:24:09.690Z,96245.05
2019-03-26T00:25:13.268Z,96246.34
2019-03-26T00:26:16.688Z,96245.34
2019-03-26T00:27:20.182Z,96245.23
2019-03-26T00:28:23.603Z,96241.34
2019-03-26T00:29:27.109Z,96238.64
2019-03-26T00:30:30.537Z,96235.61
2019-03-26T00:31:33.961Z,96238.02
2019-03-26T00:32:37.379Z,96242.16
2019-03-26T00:33:40.874Z,96243.23
2019-03-26T00:34:44.330Z,96242.16
2019-03-26T00:35:47.839Z,96235.86
2019-03-26T00:36:51.260Z,96238.89
2019-03-26T00:37:54.712Z,96242.87
2019-03-26T00:38:58.135Z,96238.55
2019-03-26T00:40:01.594Z,96233.23
2019-03-26T00:41:05.158Z,96236.28
2019-03-26T00:42:08.648Z,96232.56
2019-03-26T00:43:12.090Z,96238.10
2019-03-26T00:44:15.595Z,96233.08
2019-03-26T00:45:19.101Z,96232.22
2019-03-26T00:46:22.514Z,96231.05
2019-03-26T00:47:25.926Z,96231.27
2019-03-26T00:48:29.357Z,96235.50
2019-03-26T00:49:32.781Z,96235.27
2019-03-26T00:50:36.290Z,96236.02
2019-03-26T00:51:39.726Z,96239.17
2019-03-26T00:52:43.153Z,96241.38
2019-03-26T00:53:46.578Z,96243.84
2019-03-26T00:54:50.011Z,96239.83
2019-03-26T00:55:53.620Z,96248.41
2019-03-26T00:56:57.044Z,96235.06
2019-03-26T00:58:01.823Z,96235.16
2019-03-26T00:59:05.394Z,96236.90
2019-03-26T01:00:09.757Z,96236.22
2019-03-26T01:01:13.199Z,96233.16
2019-03-26T01:02:16.654Z,96231.44
2019-03-26T01:03:20.146Z,96227.41
2019-03-26T01:04:32.754Z,96234.78
2019-03-26T01:05:28.705Z,96238.13
2019-03-26T01:06:32.155Z,96228.80
2019-03-26T01:07:35.651Z,96230.31
2019-03-26T01:08:39.082Z,96232.38
2019-03-26T01:09:42.509Z,96230.66
2019-03-26T01:10:46.008Z,96233.59
2019-03-26T01:11:49.512Z,96235.75
2019-03-26T01:12:52.928Z,96236.80
2019-03-26T01:13:56.353Z,96238.17
2019-03-26T01:14:59.857Z,96244.75
2019-03-26T01:16:03.347Z,96243.78
2019-03-26T01:17:06.793Z,96255.42
2019-03-26T01:18:10.356Z,96253.47
2019-03-26T01:19:13.843Z,96259.80
2019-03-26T01:20:17.268Z,96268.48
2019-03-26T01:21:20.694Z,96266.54
2019-03-26T01:22:24.153Z,96274.02
2019-03-26T01:23:27.646Z,96272.20
2019-03-26T01:24:31.072Z,96272.88
2019-03-26T01:25:34.566Z,96274.39
2019-03-26T01:26:38.151Z,96281.34
2019-03-26T01:27:41.642Z,96282.44
2019-03-26T01:28:45.098Z,96285.25
2019-03-26T01:29:48.497Z,96282.83
2019-03-26T01:30:51.918Z,96288.95
2019-03-26T01:31:55.349Z,96285.91
2019-03-26T01:32:58.927Z,96289.25
2019-03-26T01:34:02.357Z,96286.63
2019-03-26T01:35:07.294Z,96287.72
2019-03-26T01:36:10.721Z,96290.77
2019-03-26T01:37:14.164Z,96288.02
2019-03-26T01:38:17.592Z,96293.22
2019-03-26T01:39:21.020Z,96290.41
2019-03-26T01:40:24.513Z,96290.50
2019-03-26T01:41:27.942Z,96285.12
2019-03-26T01:42:31.488Z,96289.46
2019-03-26T01:43:34.929Z,96291.06
2019-03-26T01:44:38.348Z,96293.02
2019-03-26T01:45:41.777Z,96297.13
2019-03-26T01:46:45.211Z,96296.59
2019-03-26T01:47:48.645Z,96301.45
2019-03-26T01:48:52.088Z,96302.31
2019-03-26T01:49:55.511Z,96304.41
2019-03-26T01:50:59.002Z,96305.89
2019-03-26T01:52:02.423Z,96308.82
2019-03-26T01:53:06.017Z,96308.50
2019-03-26T01:54:09.579Z,96304.94
2019-03-26T01:55:13.082Z,96306.03
2019-03-26T01:56:16.572Z,96308.50
2019-03-26T01:57:20.006Z,96304.83
2019-03-26T01:58:23.460Z,96306.03
2019-03-26T01:59:26.923Z,96303.87
2019-03-26T02:00:30.422Z,96303.37
2019-03-26T02:01:33.845Z,96303.58
2019-03-26T02:02:37.275Z,96307.18
2019-03-26T02:03:40.725Z,96301.20
2019-03-26T02:04:44.154Z,96304.14
2019-03-26T02:05:47.569Z,96306.66
2019-03-26T02:06:51.018Z,96308.76
2019-03-26T02:07:54.532Z,96311.27
2019-03-26T02:08:57.975Z,96307.36
2019-03-26T02:10:01.479Z,96310.36
2019-03-26T02:11:04.970Z,96309.59
2019-03-26T02:12:08.393Z,96306.22
2019-03-26T02:13:11.848Z,96316.98
2019-03-26T02:14:15.296Z,96321.87
2019-03-26T02:15:21.767Z,96321.72
2019-03-26T02:16:25.201Z,96324.50
2019-03-26T02:17:28.644Z,96327.87
2019-03-26T02:18:32.089Z,96325.21
2019-03-26T02:19:35.652Z,96328.31
2019-03-26T02:20:39.086Z,96329.38
2019-03-26T02:21:42.670Z,96330.15
2019-03-26T02:22:46.098Z,96326.36
2019-03-26T02:23:49.547Z,96329.47
2019-03-26T02:24:52.979Z,96328.38
2019-03-26T02:25:56.402Z,96326.95
2019-03-26T02:27:00.000Z,96331.19
2019-03-26T02:28:03.420Z,96334.73
2019-03-26T02:29:06.876Z,96327.66
2019-03-26T02:30:10.321Z,96323.14
2019-03-26T02:31:13.750Z,96320.77
2019-03-26T02:32:17.249Z,96324.09
2019-03-26T02:33:20.742Z,96320.27
2019-03-26T02:34:24.188Z,96324.33
2019-03-26T02:35:27.610Z,96320.89
2019-03-26T02:36:31.146Z,96318.97
2019-03-26T02:37:34.574Z,96309.20
2019-03-26T02:38:38.023Z,96322.90
2019-03-26T02:39:41.445Z,96320.38
2019-03-26T02:40:44.969Z,96319.50
2019-03-26T02:41:48.440Z,96324.27
2019-03-26T02:42:51.825Z,96323.94
2019-03-26T02:43:55.257Z,96320.89
2019-03-26T02:44:58.704Z,96326.30
2019-03-26T02:46:02.283Z,96328.47
2019-03-26T02:47:05.779Z,96325.86
2019-03-26T02:48:09.278Z,96326.13
2019-03-26T02:49:12.701Z,96324.91
2019-03-26T02:50:16.286Z,96328.17
2019-03-26T02:51:19.744Z,96327.66
2019-03-26T02:52:23.252Z,96331.36
2019-03-26T02:53:26.679Z,96331.69
2019-03-26T02:54:30.116Z,96337.88
2019-03-26T02:55:33.556Z,96338.28
2019-03-26T02:56:36.994Z,96337.43
2019-03-26T02:57:40.421Z,96337.91
2019-03-26T02:58:43.855Z,96348.50
2019-03-26T02:59:47.285Z,96347.99
2019-03-26T03:00:50.734Z,96350.30
2019-03-26T03:01:54.162Z,96347.28
2019-03-26T03:02:57.697Z,96349.45
2019-03-26T03:04:01.125Z,96337.73
2019-03-26T03:05:04.892Z,96342.34
2019-03-26T03:06:08.419Z,96346.48
2019-03-26T03:07:11.850Z,96349.66
2019-03-26T03:08:15.290Z,96342.52
2019-03-26T03:09:18.786Z,96344.27
2019-03-26T03:10:22.232Z,96339.56
2019-03-26T03:11:25.676Z,96345.95
2019-03-26T03:12:29.113Z,96341.60
2019-03-26T03:13:32.549Z,96346.12
2019-03-26T03:14:35.983Z,96350.66
2019-03-26T03:15:39.434Z,96347.43
2019-03-26T03:16:42.854Z,96352.61
2019-03-26T03:17:46.427Z,96346.54
2019-03-26T03:18:49.923Z,96350.03
2019-03-26T03:19:53.357Z,96351.69
2019-03-26T03:20:56.805Z,96355.59
2019-03-26T03:22:00.236Z,96357.43
2019-03-26T03:23:03.805Z,96352.67
2019-03-26T03:24:07.224Z,96354.70
2019-03-26T03:25:10.798Z,96358.20
2019-03-26T03:26:14.255Z,96352.84
2019-03-26T03:27:17.672Z,96357.11
2019-03-26T03:28:21.171Z,96352.64
2019-03-26T03:29:24.596Z,96355.69
2019-03-26T03:30:28.093Z,96355.59
2019-03-26T03:31:31.534Z,96363.53
2019-03-26T03:32:35.205Z,96369.42
2019-03-26T03:33:38.648Z,96365.48
2019-03-26T03:34:42.073Z,96366.06
2019-03-26T03:35:52.409Z,96372.98
2019-03-26T03:36:51.367Z,96366.33
2019-03-26T03:37:54.799Z,96368.77
2019-03-26T03:38:58.220Z,96363.45
2019-03-26T03:40:01.694Z,96371.00
2019-03-26T03:41:05.401Z,96365.97
2019-03-26T03:42:09.006Z,96371.49
2019-03-26T03:43:12.533Z,96369.70
2019-03-26T03:44:16.009Z,96371.13
2019-03-26T03:45:27.584Z,96374.94
2019-03-26T03:46:31.546Z,96368.93
2019-03-26T03:47:35.125Z,96367.50
2019-03-26T03:48:38.805Z,96362.74
2019-03-26T03:49:42.294Z,96370.77
2019-03-26T03:50:46.566Z,96372.06
2019-03-26T03:51:51.179Z,96372.02
2019-03-26T03:52:57.634Z,96375.08
2019-03-26T03:54:01.495Z,96377.27
2019-03-26T03:55:07.068Z,96379.87
2019-03-26T03:56:11.479Z,96388.86
2019-03-26T03:57:17.375Z,96380.52
2019-03-26T03:58:24.162Z,96386.17
2019-03-26T03:59:29.128Z,96386.05
2019-03-26T04:00:37.371Z,96388.16
2019-03-26T04:01:40.884Z,96387.83
2019-03-26T04:02:44.313Z,96390.65
2019-03-26T04:03:47.742Z,96397.20
2019-03-26T04:04:51.199Z,96400.04
2019-03-26T04:06:08.148Z,96400.08
2019-03-26T04:06:59.870Z,96398.66
2019-03-26T04:08:03.373Z,96395.41
2019-03-26T04:09:06.908Z,96395.21
2019-03-26T04:10:10.477Z,96400.38
2019-03-26T04:11:13.968Z,96401.34
2019-03-26T04:12:17.460Z,96397.35
2019-03-26T04:13:20.935Z,96404.60
2019-03-26T04:14:24.391Z,96401.47
2019-03-26T04:15:27.900Z,96400.70
2019-03-26T04:16:31.414Z,96406.91
2019-03-26T04:17:34.851Z,96407.97
2019-03-26T04:18:38.282Z,96412.03
2019-03-26T04:19:41.709Z,96408.78
2019-03-26T04:20:45.214Z,96408.30
2019-03-26T04:21:48.659Z,96405.95
2019-03-26T04:22:52.155Z,96415.05
2019-03-26T04:23:55.721Z,96421.72
2019-03-26T04:24:59.208Z,96419.08
2019-03-26T04:26:02.658Z,96425.50
2019-03-26T04:27:06.098Z,96421.39
2019-03-26T04:28:09.601Z,96419.93
2019-03-26T04:29:13.027Z,96421.23
2019-03-26T04:30:19.509Z,96424.48
2019-03-26T04:31:23.014Z,96426.48
2019-03-26T04:32:26.472Z,96427.45
2019-03-26T04:33:29.903Z,96424.23
2019-03-26T04:34:33.335Z,96426.07
2019-03-26T04:35:36.840Z,96426.48
2019-03-26T04:36:40.300Z,96429.53
2019-03-26T04:37:43.733Z,96429.73
2019-03-26T04:38:47.243Z,96429.20
2019-03-26T04:39:50.662Z,96442.22
2019-03-26T04:40:54.151Z,96437.78
2019-03-26T04:41:57.581Z,96445.06
2019-03-26T04:43:01.020Z,96441.53
2019-03-26T04:44:05.427Z,96443.20
2019-03-26T04:45:09.096Z,96438.68
2019-03-26T04:46:12.561Z,96445.59
2019-03-26T04:47:16.035Z,96441.16
2019-03-26T04:48:19.537Z,96449.90
2019-03-26T04:49:23.062Z,96450.06
2019-03-26T04:50:26.535Z,96445.39
2019-03-26T04:51:29.966Z,96452.66
2019-03-26T04:52:33.420Z,96446.40
2019-03-26T04:53:36.863Z,96452.09
2019-03-26T04:54:40.365Z,96449.16
2019-03-26T04:55:43.795Z,96450.50
2019-03-26T04:56:47.224Z,96454.55
2019-03-26T04:57:50.746Z,96460.53
2019-03-26T04:58:54.218Z,96460.48
2019-03-26T04:59:57.644Z,96460.74
2019-03-26T05:01:01.074Z,96468.79
2019-03-26T05:02:04.586Z,96463.16
2019-03-26T05:03:08.013Z,96467.83
2019-03-26T05:04:11.439Z,96467.97
2019-03-26T05:05:15.026Z,96467.52
2019-03-26T05:06:18.514Z,96471.79
2019-03-26T05:07:22.027Z,96473.94
2019-03-26T05:08:25.465Z,96473.02
2019-03-26T05:09:28.891Z,96469.44
2019-03-26T05:10:32.318Z,96468.91
2019-03-26T05:11:35.757Z,96472.10
2019-03-26T05:12:39.197Z,96471.49
2019-03-26T05:13:42.765Z,96472.80
2019-03-26T05:14:46.188Z,96469.80
2019-03-26T05:15:49.694Z,96473.75
2019-03-26T05:16:53.118Z,96473.02
2019-03-26T05:17:56.981Z,96470.43
2019-03-26T05:19:00.385Z,96473.11
2019-03-26T05:20:04.703Z,96477.39
2019-03-26T05:21:08.186Z,96474.39
2019-03-26T05:22:23.559Z,96477.66
2019-03-26T05:23:16.802Z,96483.18
2019-03-26T05:24:20.235Z,96484.27
2019-03-26T05:25:23.661Z,96483.97
2019-03-26T05:26:27.093Z,96487.34
2019-03-26T05:27:30.547Z,96488.37
2019-03-26T05:28:33.974Z,96488.89
2019-03-26T05:29:37.402Z,96489.05
2019-03-26T05:30:40.830Z,96490.67
2019-03-26T05:31:44.274Z,96491.44
2019-03-26T05:32:47.736Z,96488.06
2019-03-26T05:33:51.254Z,96487.00
2019-03-26T05:34:54.674Z,96488.14
2019-03-26T05:35:58.105Z,96492.72
2019-03-26T05:37:01.537Z,96488.41
2019-03-26T05:38:04.976Z,96485.44
2019-03-26T05:39:08.466Z,96487.08
2019-03-26T05:40:12.143Z,96491.14
2019-03-26T05:41:15.710Z,96493.06
2019-03-26T05:42:19.221Z,96495.45
2019-03-26T05:43:22.663Z,96497.20
2019-03-26T05:44:26.100Z,96497.34
2019-03-26T05:45:29.525Z,96496.48
2019-03-26T05:46:32.956Z,96505.30
2019-03-26T05:47:36.397Z,96504.19
2019-03-26T05:48:39.831Z,96499.06
2019-03-26T05:49:43.257Z,96505.17
2019-03-26T05:50:46.688Z,96510.70
2019-03-26T05:51:50.122Z,96505.12
2019-03-26T05:52:53.573Z,96509.89
2019-03-26T05:53:57.075Z,96507.42
2019-03-26T05:55:00.538Z,96503.06
2019-03-26T05:56:03.997Z,96504.23
2019-03-26T05:57:07.437Z,96499.64
2019-03-26T05:58:10.892Z,96502.16
2019-03-26T05:59:14.323Z,96505.52
2019-03-26T06:00:21.225Z,96500.44
2019-03-26T06:01:24.670Z,96507.32
2019-03-26T06:02:28.095Z,96506.47
2019-03-26T06:03:31.547Z,96511.59
2019-03-26T06:04:35.180Z,96512.77
2019-03-26T06:05:38.610Z,96512.39
2019-03-26T06:06:42.108Z,96513.77
2019-03-26T06:07:45.604Z,96511.25
2019-03-26T06:08:49.064Z,96511.84
2019-03-26T06:09:52.483Z,96513.08
2019-03-26T06:10:55.895Z,96514.62
2019-03-26T06:11:59.503Z,96513.80
2019-03-26T06:13:02.953Z,96514.00
2019-03-26T06:14:06.423Z,96515.95
2019-03-26T06:15:11.389Z,96513.08
2019-03-26T06:16:14.812Z,96521.80
2019-03-26T06:17:18.267Z,96520.09
2019-03-26T06:18:21.718Z,96521.48
2019-03-26T06:19:25.150Z,96524.00
2019-03-26T06:20:28.585Z,96525.56
2019-03-26T06:21:32.012Z,96520.10
2019-03-26T06:22:35.982Z,96527.38
2019-03-26T06:23:39.413Z,96527.14
2019-03-26T06:24:42.846Z,96523.28
2019-03-26T06:25:46.326Z,96527.48
2019-03-26T06:26:49.773Z,96529.81
2019-03-26T06:27:53.219Z,96529.61
2019-03-26T06:28:56.654Z,96528.83
2019-03-26T06:30:00.374Z,96532.45
2019-03-26T06:31:03.872Z,96531.84
2019-03-26T06:32:07.297Z,96531.20
2019-03-26T06:33:10.824Z,96529.20
2019-03-26T06:34:14.281Z,96530.55
2019-03-26T06:35:17.723Z,96537.70
2019-03-26T06:36:21.180Z,96530.05
2019-03-26T06:37:24.604Z,96537.87
2019-03-26T06:38:28.059Z,96531.89
2019-03-26T06:39:31.487Z,96544.22
2019-03-26T06:40:35.122Z,96541.16
2019-03-26T06:41:38.621Z,96534.73
2019-03-26T06:42:42.117Z,96536.00
2019-03-26T06:43:45.560Z,96532.27
2019-03-26T06:44:49.020Z,96534.13
2019-03-26T06:45:52.524Z,96523.67
2019-03-26T06:46:56.017Z,96534.14
2019-03-26T06:47:59.512Z,96533.41
2019-03-26T06:49:02.959Z,96541.22
2019-03-26T06:50:08.736Z,96540.20
2019-03-26T06:51:12.159Z,96538.37
2019-03-26T06:52:15.611Z,96540.41
2019-03-26T06:53:19.030Z,96541.72
2019-03-26T06:54:22.497Z,96540.73
2019-03-26T06:55:25.953Z,96542.41
2019-03-26T06:56:29.442Z,96541.42
2019-03-26T06:57:35.839Z,96535.08
2019-03-26T06:58:38.086Z,96536.09
2019-03-26T06:59:41.599Z,96541.95
2019-03-26T07:00:45.171Z,96541.37
2019-03-26T07:01:48.796Z,96543.58
2019-03-26T07:02:52.232Z,96546.02
2019-03-26T07:03:55.893Z,96546.34
2019-03-26T07:04:59.354Z,96549.02
2019-03-26T07:06:02.807Z,96560.02
2019-03-26T07:07:06.340Z,96560.47
2019-03-26T07:08:09.767Z,96568.20
2019-03-26T07:09:13.199Z,96568.12
2019-03-26T07:10:19.722Z,96575.48
2019-03-26T07:11:23.205Z,96580.33
2019-03-26T07:12:26.713Z,96579.77
2019-03-26T07:13:30.230Z,96579.28
2019-03-26T07:14:33.668Z,96577.85
2019-03-26T07:15:37.113Z,96578.58
2019-03-26T07:16:40.635Z,96579.64
2019-03-26T07:17:44.058Z,96575.44
2019-03-26T07:18:47.500Z,96577.85
2019-03-26T07:19:50.996Z,96578.95
2019-03-26T07:20:54.585Z,96576.79
2019-03-26T07:21:58.174Z,96576.79
2019-03-26T07:23:01.618Z,96578.70
2019-03-26T07:24:05.181Z,96583.70
2019-03-26T07:25:10.117Z,96582.91
2019-03-26T07:26:13.740Z,96581.52
2019-03-26T07:27:17.170Z,96584.54
2019-03-26T07:28:20.685Z,96583.31
2019-03-26T07:29:24.123Z,96578.34
2019-03-26T07:30:42.486Z,96579.81
2019-03-26T07:31:46.007Z,96589.13
2019-03-26T07:32:49.433Z,96587.61
2019-03-26T07:33:52.873Z,96584.77
2019-03-26T07:34:56.305Z,96578.89
2019-03-26T07:35:59.747Z,96576.05
2019-03-26T07:37:03.194Z,96576.74
2019-03-26T07:38:06.765Z,96583.86
2019-03-26T07:39:10.263Z,96585.86
2019-03-26T07:40:13.837Z,96580.56
2019-03-26T07:41:17.268Z,96587.16
2019-03-26T07:42:20.713Z,96586.59
2019-03-26T07:43:24.146Z,96579.42
2019-03-26T07:44:27.575Z,96582.11
2019-03-26T07:45:31.149Z,96583.62
2019-03-26T07:46:34.645Z,96585.06
2019-03-26T07:47:38.173Z,96579.69
2019-03-26T07:48:41.590Z,96584.33
2019-03-26T07:49:45.089Z,96585.63
2019-03-26T07:50:48.517Z,96581.48
2019-03-26T07:51:51.936Z,96593.73
2019-03-26T07:52:55.449Z,96594.83
2019-03-26T07:53:58.904Z,96582.34
2019-03-26T07:55:02.355Z,96587.26
2019-03-26T07:56:05.834Z,96585.60
2019-03-26T07:57:09.281Z,96587.47
2019-03-26T07:58:12.754Z,96589.28
2019-03-26T07:59:16.248Z,96592.10
2019-03-26T08:00:22.724Z,96589.95
2019-03-26T08:01:26.214Z,96589.70
2019-03-26T08:02:29.658Z,96588.98
2019-03-26T08:03:33.114Z,96590.80
2019-03-26T08:04:36.536Z,96590.32
2019-03-26T08:05:39.963Z,96594.72
2019-03-26T08:06:43.390Z,96594.80
2019-03-26T08:07:57.681Z,96605.14
2019-03-26T08:08:51.985Z,96605.22
2019-03-26T08:09:55.409Z,96601.52
2019-03-26T08:10:58.831Z,96598.42
2019-03-26T08:12:02.255Z,96597.89
2019-03-26T08:13:05.777Z,96601.23
2019-03-26T08:14:09.289Z,96598.47
2019-03-26T08:15:12.779Z,96596.92
2019-03-26T08:16:16.200Z,96593.75
2019-03-26T08:17:19.644Z,96594.39
2019-03-26T08:18:23.054Z,96586.09
2019-03-26T08:19:26.503Z,96586.53
2019-03-26T08:20:29.930Z,96585.64
2019-03-26T08:21:33.353Z,96585.02
2019-03-26T08:22:36.775Z,96585.67
2019-03-26T08:23:40.204Z,96584.30
2019-03-26T08:24:43.650Z,96583.64
2019-03-26T08:25:47.220Z,96581.69
2019-03-26T08:26:52.144Z,96578.05
2019-03-26T08:27:55.649Z,96585.96
2019-03-26T08:29:01.005Z,96583.97
2019-03-26T08:30:06.008Z,96584.95
2019-03-26T08:31:09.630Z,96586.05
2019-03-26T08:32:13.004Z,96580.59
2019-03-26T08:33:16.444Z,96581.77
2019-03-26T08:34:19.875Z,96581.87
2019-03-26T08:35:23.321Z,96583.73
2019-03-26T08:36:26.822Z,96590.41
2019-03-26T08:37:30.246Z,96586.67
2019-03-26T08:38:33.760Z,96586.22
2019-03-26T08:39:37.202Z,96589.55
2019-03-26T08:40:40.789Z,96591.30
2019-03-26T08:41:44.215Z,96590.80
2019-03-26T08:42:47.642Z,96588.66
2019-03-26T08:43:51.054Z,96590.56
2019-03-26T08:44:54.503Z,96589.49
2019-03-26T08:45:57.920Z,96590.73
2019-03-26T08:47:01.400Z,96590.52
2019-03-26T08:48:05.222Z,96588.77
2019-03-26T08:49:08.686Z,96589.49
2019-03-26T08:50:13.166Z,96586.44
2019-03-26T08:51:16.572Z,96593.23
2019-03-26T08:52:20.082Z,96597.16
2019-03-26T08:53:23.513Z,96594.88
2019-03-26T08:54:26.942Z,96596.07
2019-03-26T08:55:30.375Z,96594.73
2019-03-26T08:56:33.828Z,96592.80
2019-03-26T08:57:37.330Z,96593.85
2019-03-26T08:58:40.763Z,96601.14
2019-03-26T08:59:44.189Z,96599.28
2019-03-26T09:00:47.641Z,96601.03
2019-03-26T09:01:51.064Z,96597.55
2019-03-26T09:02:54.555Z,96601.29
2019-03-26T09:03:57.976Z,96602.17
2019-03-26T09:05:01.413Z,96604.88
2019-03-26T09:06:05.083Z,96602.38
2019-03-26T09:07:10.960Z,96603.09
2019-03-26T09:08:24.899Z,96601.17
2019-03-26T09:09:18.886Z,96600.42
2019-03-26T09:10:22.475Z,96604.99
2019-03-26T09:11:26.057Z,96603.66
2019-03-26T09:12:29.546Z,96608.31
2019-03-26T09:13:32.974Z,96610.50
2019-03-26T09:14:36.479Z,96613.79
2019-03-26T09:15:39.906Z,96611.13
2019-03-26T09:16:43.336Z,96613.04
2019-03-26T09:17:46.836Z,96614.78
2019-03-26T09:18:50.266Z,96613.41
2019-03-26T09:19:53.713Z,96610.91
2019-03-26T09:20:57.414Z,96608.91
2019-03-26T09:22:00.838Z,96616.44
2019-03-26T09:23:04.339Z,96611.94
2019-03-26T09:24:07.769Z,96610.13
2019-03-26T09:25:11.626Z,96611.15
2019-03-26T09:26:15.065Z,96609.25
2019-03-26T09:27:18.483Z,96613.77
2019-03-26T09:28:21.917Z,96609.94
2019-03-26T09:29:25.345Z,96613.53
2019-03-26T09:30:28.856Z,96618.97
2019-03-26T09:31:32.284Z,96618.56
2019-03-26T09:32:35.708Z,96618.47
2019-03-26T09:33:39.204Z,96621.23
2019-03-26T09:34:42.723Z,96617.55
2019-03-26T09:35:46.166Z,96612.66
2019-03-26T09:36:49.664Z,96611.85
2019-03-26T09:37:53.090Z,96615.58
2019-03-26T09:38:56.596Z,96611.66
2019-03-26T09:40:00.013Z,96612.66
2019-03-26T09:41:03.461Z,96612.34
2019-03-26T09:42:06.948Z,96612.03
2019-03-26T09:43:10.376Z,96613.78
2019-03-26T09:44:13.801Z,96610.06
2019-03-26T09:45:17.228Z,96612.91
2019-03-26T09:46:20.745Z,96615.05
2019-03-26T09:47:24.172Z,96614.17
2019-03-26T09:48:27.594Z,96614.95
2019-03-26T09:49:31.022Z,96613.64
2019-03-26T09:50:36.309Z,96623.13
2019-03-26T09:51:39.765Z,96622.69
2019-03-26T09:52:43.253Z,96618.63
2019-03-26T09:53:46.685Z,96620.28
2019-03-26T09:54:50.140Z,96620.84
2019-03-26T09:55:53.657Z,96622.34
2019-03-26T09:56:57.088Z,96618.43
2019-03-26T09:58:00.527Z,96619.20
2019-03-26T09:59:04.016Z,96621.05
2019-03-26T10:00:12.166Z,96618.77
2019-03-26T10:01:15.617Z,96623.56
2019-03-26T10:02:19.035Z,96625.84
2019-03-26T10:03:22.544Z,96617.23
2019-03-26T10:04:25.973Z,96623.13
2019-03-26T10:05:29.403Z,96623.23
2019-03-26T10:06:32.913Z,96617.13
2019-03-26T10:07:36.418Z,96618.14
2019-03-26T10:08:51.940Z,96617.80
2019-03-26T10:09:44.999Z,96622.59
2019-03-26T10:10:48.433Z,96621.08
2019-03-26T10:11:51.956Z,96620.62
2019-03-26T10:12:55.390Z,96614.08
2019-03-26T10:13:58.822Z,96609.23
2019-03-26T10:15:02.264Z,96611.94
2019-03-26T10:16:05.702Z,96609.33
2019-03-26T10:17:09.134Z,96610.34
2019-03-26T10:18:12.618Z,96612.33
2019-03-26T10:19:17.129Z,96612.67
2019-03-26T10:20:20.597Z,96607.78
2019-03-26T10:21:24.112Z,96603.18
2019-03-26T10:22:27.601Z,96609.95
2019-03-26T10:23:31.035Z,96610.83
2019-03-26T10:24:34.598Z,96609.52
2019-03-26T10:25:38.025Z,96607.44
2019-03-26T10:26:41.465Z,96604.48
2019-03-26T10:27:44.894Z,96603.39
2019-03-26T10:28:48.381Z,96596.78
2019-03-26T10:29:51.815Z,96596.14
2019-03-26T10:30:55.232Z,96594.05
2019-03-26T10:31:58.750Z,96597.88
2019-03-26T10:33:02.416Z,96597.12
2019-03-26T10:34:05.844Z,96601.80
2019-03-26T10:35:09.605Z,96592.76
2019-03-26T10:36:13.116Z,96592.22
2019-03-26T10:37:16.606Z,96595.88
2019-03-26T10:38:20.035Z,96599.60
2019-03-26T10:39:23.528Z,96590.58
2019-03-26T10:40:35.056Z,96590.04
2019-03-26T10:41:38.503Z,96589.48
2019-03-26T10:42:42.016Z,96580.67
2019-03-26T10:43:45.494Z,96578.80
2019-03-26T10:44:48.910Z,96579.23
2019-03-26T10:45:52.332Z,96579.47
2019-03-26T10:46:55.843Z,96578.16
2019-03-26T10:47:59.344Z,96578.47
2019-03-26T10:49:02.765Z,96574.21
2019-03-26T10:50:07.228Z,96575.97
2019-03-26T10:51:10.658Z,96575.94
2019-03-26T10:52:14.171Z,96577.48
2019-03-26T10:53:17.599Z,96583.59
2019-03-26T10:54:21.031Z,96575.73
2019-03-26T10:55:24.563Z,96578.57
2019-03-26T10:56:28.031Z,96576.06
2019-03-26T10:57:31.455Z,96575.09
2019-03-26T10:58:34.882Z,96577.78
2019-03-26T10:59:38.305Z,96570.45
2019-03-26T11:00:41.867Z,96570.45
2019-03-26T11:01:45.329Z,96573.41
2019-03-26T11:02:48.819Z,96574.61
2019-03-26T11:03:52.237Z,96567.22
2019-03-26T11:04:55.678Z,96565.22
2019-03-26T11:05:59.112Z,96564.54
2019-03-26T11:07:02.562Z,96561.92
2019-03-26T11:08:06.063Z,96570.41
2019-03-26T11:09:23.023Z,96570.41
2019-03-26T11:10:14.795Z,96564.91
2019-03-26T11:11:18.218Z,96560.75
2019-03-26T11:12:21.671Z,96571.98
2019-03-26T11:13:25.162Z,96564.91
2019-03-26T11:14:31.692Z,96567.70
2019-03-26T11:15:34.041Z,96565.71
2019-03-26T11:16:37.541Z,96566.68
2019-03-26T11:17:41.053Z,96560.98
2019-03-26T11:18:44.495Z,96558.86
2019-03-26T11:19:47.903Z,96562.15
2019-03-26T11:21:01.946Z,96564.06
2019-03-26T11:21:56.512Z,96568.48
2019-03-26T11:23:00.095Z,96568.48
2019-03-26T11:24:03.658Z,96557.66
2019-03-26T11:25:08.597Z,96557.66
2019-03-26T11:26:13.739Z,96553.45
2019-03-26T11:27:17.259Z,96553.45
2019-03-26T11:28:20.673Z,96559.62
2019-03-26T11:29:24.183Z,96562.63
2019-03-26T11:30:27.587Z,96562.63
2019-03-26T11:31:31.011Z,96562.55
2019-03-26T11:32:34.532Z,96558.57
2019-03-26T11:33:37.966Z,96558.57
2019-03-26T11:34:41.393Z,96554.44
2019-03-26T11:35:44.879Z,96553.53
2019-03-26T11:36:48.448Z,96556.16
2019-03-26T11:37:51.963Z,96553.05
2019-03-26T11:38:55.707Z,96559.59
2019-03-26T11:39:59.208Z,96559.73
2019-03-26T11:41:02.642Z,96561.92
2019-03-26T11:42:06.221Z,96555.31
2019-03-26T11:43:09.645Z,96553.50
2019-03-26T11:44:13.145Z,96545.97
2019-03-26T11:45:18.006Z,96552.96
2019-03-26T11:46:21.592Z,96551.31
2019-03-26T11:47:25.106Z,96545.63
2019-03-26T11:48:28.531Z,96553.44
2019-03-26T11:49:31.959Z,96553.44
2019-03-26T11:50:35.457Z,96556.01
2019-03-26T11:51:38.884Z,96554.70
2019-03-26T11:52:42.413Z,96552.62
2019-03-26T11:53:45.920Z,96551.88
2019-03-26T11:54:49.352Z,96553.93
2019-03-26T11:55:52.784Z,96543.51
2019-03-26T11:56:56.285Z,96543.51
2019-03-26T11:57:59.743Z,96547.34
2019-03-26T11:59:03.169Z,96557.72
2019-03-26T12:00:09.595Z,96554.86
2019-03-26T12:01:13.020Z,96554.32
2019-03-26T12:02:16.557Z,96536.59
2019-03-26T12:03:19.960Z,96554.90
2019-03-26T12:04:23.381Z,96555.35
2019-03-26T12:05:26.808Z,96554.41
2019-03-26T12:06:30.234Z,96554.41
2019-03-26T12:07:33.704Z,96552.31
2019-03-26T12:08:37.125Z,96551.08
2019-03-26T12:09:46.339Z,96551.62
2019-03-26T12:10:45.764Z,96556.83
2019-03-26T12:11:49.268Z,96555.89
2019-03-26T12:12:52.718Z,96552.33
2019-03-26T12:13:56.272Z,96555.53
2019-03-26T12:14:59.697Z,96551.59
2019-03-26T12:16:03.202Z,96554.64
2019-03-26T12:17:06.688Z,96547.64
2019-03-26T12:18:10.223Z,96546.98
2019-03-26T12:19:13.664Z,96546.60
2019-03-26T12:20:17.325Z,96544.02
2019-03-26T12:21:20.747Z,96545.64
2019-03-26T12:22:24.178Z,96539.59
2019-03-26T12:23:27.616Z,96544.21
2019-03-26T12:24:31.116Z,96537.28
2019-03-26T12:25:34.596Z,96546.43
2019-03-26T12:26:38.043Z,96536.75
2019-03-26T12:27:41.475Z,96545.03